Time;durP1;ratioP1;P1;durP2;ratioP2;P2;SDS_P1;SDS_P2;PMS_P1;PMS_P2;Temp;Humidity;BMP_temperature;BMP_pressure;BME280_temperature;BME280_humidity;BME280_pressure;Samples;Min_cycle;Max_cycle;Signal;HPM_P1;HPM_P2
2022/02/06 00:01:35;;;;;;;8.18;1.42;;;3.40;67.50;;;;;;5053879;28;20045;-78
2022/02/06 00:04:01;;;;;;;11.02;1.00;;;3.50;67.40;;;;;;5053833;28;20036;-78
2022/02/06 00:06:29;;;;;;;6.63;1.08;;;3.50;67.30;;;;;;5053679;28;20108;-78
2022/02/06 00:08:55;;;;;;;8.77;1.48;;;3.50;67.30;;;;;;5053586;28;20029;-78
2022/02/06 00:11:20;;;;;;;8.57;1.13;;;3.50;67.40;;;;;;5053555;28;20028;-77
2022/02/06 00:13:46;;;;;;;3.85;1.30;;;3.40;67.40;;;;;;5053561;28;20131;-77
2022/02/06 00:16:12;;;;;;;10.85;1.67;;;3.50;67.50;;;;;;5051369;28;20204;-79
2022/02/06 00:18:39;;;;;;;4.63;0.82;;;3.50;67.50;;;;;;5053267;28;20070;-75
2022/02/06 00:21:11;;;;;;;14.23;2.15;;;3.50;67.20;;;;;;5053366;28;20024;-78
2022/02/06 00:23:36;;;;;;;7.25;1.13;;;3.50;67.10;;;;;;5053003;28;20055;-78
2022/02/06 00:26:17;;;;;;;4.18;0.93;;;3.40;67.50;;;;;;5053300;28;20048;-78
2022/02/06 00:28:55;;;;;;;5.70;1.27;;;3.40;68.00;;;;;;5053655;28;20493;-78
2022/02/06 00:31:32;;;;;;;6.35;1.15;;;3.30;67.80;;;;;;5053496;28;20031;-78
2022/02/06 00:39:11;;;;;;;10.50;1.48;;;3.40;67.40;;;;;;5053225;28;20112;-78
2022/02/06 00:41:37;;;;;;;4.30;1.02;;;3.40;67.40;;;;;;5053114;28;20139;-77
2022/02/06 00:44:05;;;;;;;10.82;1.15;;;3.40;67.40;;;;;;5053050;28;20032;-78
2022/02/06 00:46:32;;;;;;;5.95;1.10;;;3.40;67.40;;;;;;5052958;28;20032;-76
2022/02/06 00:49:01;;;;;;;4.57;1.35;;;3.40;67.60;;;;;;5052947;28;20029;-78
2022/02/06 00:53:55;;;;;;;5.20;1.23;;;3.40;67.40;;;;;;5052948;28;20377;-77
2022/02/06 00:56:21;;;;;;;6.85;1.02;;;3.40;67.60;;;;;;5052868;28;20021;-77
2022/02/06 00:58:46;;;;;;;13.75;1.48;;;3.40;67.00;;;;;;5052866;28;20024;-77
2022/02/06 01:01:12;;;;;;;10.02;1.48;;;3.50;68.20;;;;;;5052840;28;20056;-78
2022/02/06 01:03:37;;;;;;;7.43;1.63;;;3.40;67.20;;;;;;5052850;28;20028;-76
2022/02/06 01:06:06;;;;;;;5.43;1.27;;;3.30;67.40;;;;;;5052857;28;20036;-78
2022/02/06 01:08:32;;;;;;;8.43;1.30;;;3.40;66.90;;;;;;5052745;28;20090;-78
2022/02/06 01:10:58;;;;;;;5.97;1.98;;;3.40;67.80;;;;;;5052827;28;20025;-78
2022/02/06 01:13:30;;;;;;;4.75;1.30;;;3.50;66.90;;;;;;5052764;28;20021;-78
2022/02/06 01:16:05;;;;;;;3.33;0.80;;;3.40;66.90;;;;;;5052891;28;20116;-77
2022/02/06 01:18:36;;;;;;;7.35;1.00;;;3.40;66.50;;;;;;5052694;28;20052;-78
2022/02/06 01:21:10;;;;;;;5.85;1.00;;;3.40;66.60;;;;;;5051548;28;20051;-78
2022/02/06 01:26:17;;;;;;;3.88;0.60;;;3.40;66.50;;;;;;5052912;28;20112;-79
2022/02/06 01:28:49;;;;;;;7.82;1.20;;;3.50;66.80;;;;;;5056262;28;20048;-78
2022/02/06 01:33:59;;;;;;;9.10;1.08;;;3.50;66.20;;;;;;5056629;28;20028;-78
2022/02/06 01:36:35;;;;;;;6.78;0.95;;;3.50;66.50;;;;;;5056349;28;20021;-78
2022/02/06 01:39:11;;;;;;;6.28;1.40;;;3.50;66.50;;;;;;5056558;28;20469;-79
2022/02/06 01:41:41;;;;;;;7.38;1.60;;;3.50;66.40;;;;;;5056341;28;20025;-77
2022/02/06 01:44:43;;;;;;;7.13;1.55;;;3.50;66.40;;;;;;5056411;28;20025;-78
2022/02/06 02:09:13;;;;;;;9.35;1.25;;;3.50;66.00;;;;;;5055863;28;20059;-76
2022/02/06 02:12:04;;;;;;;3.13;0.90;;;3.50;65.70;;;;;;5055795;28;20025;-77
2022/02/06 02:15:05;;;;;;;4.53;1.02;;;3.60;65.00;;;;;;5056121;28;20021;-77
2022/02/06 02:20:46;;;;;;;5.63;1.30;;;3.60;65.10;;;;;;5056100;28;20055;-76
2022/02/06 02:31:15;;;;;;;10.75;1.48;;;3.50;65.60;;;;;;5055596;28;20075;-77
2022/02/06 02:47:20;;;;;;;5.82;0.90;;;3.50;66.00;;;;;;5055238;28;20021;-78
2022/02/06 02:49:52;;;;;;;6.15;1.17;;;3.50;65.70;;;;;;5055237;28;20037;-78
2022/02/06 02:57:55;;;;;;;7.32;1.35;;;3.50;66.00;;;;;;5055261;28;20021;-77
2022/02/06 03:02:53;;;;;;;6.80;1.45;;;3.50;66.00;;;;;;5055117;28;20021;-79
2022/02/06 03:05:19;;;;;;;4.57;1.08;;;3.50;66.40;;;;;;5055274;28;20017;-77
2022/02/06 03:07:45;;;;;;;8.45;0.95;;;3.50;66.40;;;;;;5055075;28;20079;-78
2022/02/06 03:10:10;;;;;;;9.25;1.73;;;3.50;66.40;;;;;;5054660;28;20450;-77
2022/02/06 03:12:36;;;;;;;6.88;1.25;;;3.50;66.50;;;;;;5054667;28;20040;-77
2022/02/06 03:15:19;;;;;;;4.10;0.82;;;3.60;66.40;;;;;;5053518;28;20047;-76
2022/02/06 03:17:56;;;;;;;6.50;1.00;;;3.50;66.70;;;;;;5054677;28;20025;-77
2022/02/06 03:20:22;;;;;;;7.35;0.95;;;3.60;66.40;;;;;;5054550;28;20473;-77
2022/02/06 03:22:51;;;;;;;4.10;1.23;;;3.60;66.50;;;;;;5054521;28;20025;-75
2022/02/06 03:25:20;;;;;;;9.30;1.50;;;3.60;66.10;;;;;;5054430;28;20032;-76
2022/02/06 03:27:47;;;;;;;4.43;1.00;;;3.60;66.20;;;;;;5054401;28;20059;-77
2022/02/06 03:30:13;;;;;;;8.13;1.52;;;3.60;66.40;;;;;;5054275;28;20055;-76
2022/02/06 03:32:38;;;;;;;3.75;0.80;;;3.60;66.60;;;;;;5054165;28;20021;-76
2022/02/06 03:35:04;;;;;;;6.13;1.00;;;3.60;66.40;;;;;;5054244;28;20025;-77
2022/02/06 03:37:30;;;;;;;8.55;1.83;;;3.70;66.40;;;;;;5054161;28;20465;-77
2022/02/06 03:39:58;;;;;;;5.25;1.27;;;3.60;66.30;;;;;;5054241;28;20107;-79
2022/02/06 03:42:30;;;;;;;6.53;0.95;;;3.60;66.50;;;;;;5054180;28;20047;-76
2022/02/06 03:45:02;;;;;;;2.88;0.85;;;3.60;66.40;;;;;;5054199;28;20017;-79
2022/02/06 03:47:35;;;;;;;8.70;1.67;;;3.60;66.30;;;;;;5054191;28;20381;-79
2022/02/06 03:50:04;;;;;;;8.77;1.00;;;3.60;66.60;;;;;;5053910;28;20035;-78
2022/02/06 03:52:36;;;;;;;4.57;1.17;;;3.60;66.40;;;;;;5054019;28;20414;-79
2022/02/06 03:55:03;;;;;;;8.73;1.77;;;3.70;66.60;;;;;;5057298;28;20384;-79
2022/02/06 03:57:29;;;;;;;3.25;0.85;;;3.70;66.40;;;;;;5057107;28;20029;-77
2022/02/06 03:59:56;;;;;;;5.82;1.25;;;3.70;67.40;;;;;;5056734;28;20131;-76
2022/02/06 04:02:21;;;;;;;7.60;0.93;;;3.70;66.40;;;;;;5055343;28;20021;-75
2022/02/06 04:04:47;;;;;;;5.80;1.30;;;3.70;66.40;;;;;;5053874;28;20479;-77
2022/02/06 04:07:13;;;;;;;6.25;1.02;;;3.70;66.00;;;;;;5053919;28;20428;-76
2022/02/06 04:09:46;;;;;;;7.25;1.85;;;3.70;66.10;;;;;;5053406;28;20491;-78
2022/02/06 04:12:14;;;;;;;2.92;0.95;;;3.70;65.90;;;;;;5053647;28;20108;-77
2022/02/06 04:14:52;;;;;;;6.38;1.17;;;3.70;65.90;;;;;;5053594;28;20369;-77
2022/02/06 04:17:19;;;;;;;4.85;1.50;;;3.70;65.40;;;;;;5053605;28;20148;-76
2022/02/06 04:19:44;;;;;;;5.20;1.10;;;3.70;65.00;;;;;;5053528;28;20483;-76
2022/02/06 04:22:10;;;;;;;5.32;1.15;;;3.60;65.00;;;;;;5053474;28;20103;-76
2022/02/06 04:24:36;;;;;;;9.23;1.00;;;3.60;65.20;;;;;;5053344;28;20033;-76
2022/02/06 04:27:01;;;;;;;3.75;0.85;;;3.70;65.40;;;;;;5053387;28;20063;-77
2022/02/06 04:29:27;;;;;;;4.40;1.00;;;3.60;65.10;;;;;;5051762;28;20040;-76
2022/02/06 04:31:53;;;;;;;6.97;1.17;;;3.70;64.40;;;;;;5053299;28;20025;-76
2022/02/06 04:34:23;;;;;;;5.13;1.20;;;3.60;64.20;;;;;;5053333;28;20025;-77
2022/02/06 04:42:17;;;;;;;6.72;1.10;;;3.60;64.50;;;;;;5053337;28;20040;-76
2022/02/06 04:50:49;;;;;;;5.40;0.95;;;3.70;64.80;;;;;;5053146;28;20111;-77
2022/02/06 05:11:13;;;;;;;4.95;1.02;;;3.70;63.80;;;;;;5053267;28;20039;-77
2022/02/06 05:12:47;;;;;;;3.08;0.90;;;3.80;63.50;;;;;;5052785;28;20098;-78
2022/02/06 05:23:21;;;;;;;7.63;1.40;;;3.80;63.40;;;;;;5052701;28;20020;-76
2022/02/06 05:25:50;;;;;;;6.78;0.90;;;3.80;63.40;;;;;;5049541;28;20539;-78
2022/02/06 05:28:32;;;;;;;3.33;1.00;;;3.70;63.60;;;;;;5052387;28;20088;-75
2022/02/06 05:31:08;;;;;;;5.82;1.15;;;3.80;63.70;;;;;;5052746;28;20025;-75
2022/02/06 05:33:35;;;;;;;4.18;1.55;;;3.70;63.60;;;;;;5052785;28;20385;-78
2022/02/06 05:36:03;;;;;;;9.55;1.20;;;3.70;63.80;;;;;;5052648;28;20473;-78
2022/02/06 05:38:28;;;;;;;5.25;1.25;;;3.80;64.00;;;;;;5052489;28;20033;-75
2022/02/06 05:40:54;;;;;;;6.32;1.13;;;3.70;64.00;;;;;;5052617;28;20025;-78
2022/02/06 05:43:19;;;;;;;6.35;1.45;;;3.70;64.10;;;;;;5052587;28;20540;-76
2022/02/06 05:45:45;;;;;;;5.80;1.05;;;3.70;64.50;;;;;;5052385;28;20045;-78
2022/02/06 05:48:11;;;;;;;6.13;1.20;;;3.70;64.90;;;;;;5051405;28;20423;-75
2022/02/06 05:50:42;;;;;;;4.82;1.10;;;3.70;64.80;;;;;;5052327;28;20052;-75
2022/02/06 05:53:10;;;;;;;4.43;1.00;;;3.80;64.60;;;;;;5052431;28;20017;-78
2022/02/06 05:55:36;;;;;;;5.18;1.20;;;3.80;65.40;;;;;;5052369;28;20080;-77
2022/02/06 05:58:01;;;;;;;6.15;1.35;;;3.80;64.60;;;;;;5051085;28;20028;-75
2022/02/06 06:00:27;;;;;;;5.38;1.45;;;3.80;64.50;;;;;;5052225;28;20104;-76
2022/02/06 06:02:53;;;;;;;8.27;1.90;;;3.80;64.50;;;;;;5052343;28;20082;-75
2022/02/06 06:05:19;;;;;;;9.60;1.58;;;3.90;64.50;;;;;;5052178;28;20032;-76
2022/02/06 06:07:45;;;;;;;9.18;1.05;;;3.80;64.60;;;;;;5052190;28;20023;-78
2022/02/06 06:10:11;;;;;;;5.38;1.38;;;3.90;64.60;;;;;;5052161;28;20485;-75
2022/02/06 06:12:38;;;;;;;4.22;1.10;;;3.90;64.60;;;;;;5052094;28;20104;-77
2022/02/06 06:15:04;;;;;;;6.15;1.63;;;3.90;64.70;;;;;;5054723;28;20063;-77
2022/02/06 06:17:29;;;;;;;9.45;1.05;;;3.90;64.90;;;;;;5055630;28;20469;-76
2022/02/06 06:19:56;;;;;;;5.68;0.85;;;3.90;65.20;;;;;;5055732;28;20021;-76
2022/02/06 06:22:22;;;;;;;5.95;1.02;;;3.90;65.20;;;;;;5055729;28;20067;-76
2022/02/06 06:24:54;;;;;;;6.55;1.40;;;3.90;65.50;;;;;;5055620;28;20013;-75
2022/02/06 06:27:20;;;;;;;7.88;1.40;;;3.90;65.50;;;;;;5055552;28;20495;-75
2022/02/06 06:29:47;;;;;;;5.68;1.27;;;3.90;65.80;;;;;;5055349;28;20041;-74
2022/02/06 06:32:13;;;;;;;6.90;1.48;;;3.90;65.90;;;;;;5055499;28;20028;-74
2022/02/06 06:34:38;;;;;;;10.20;1.50;;;4.00;65.70;;;;;;5055342;28;20389;-76
2022/02/06 06:37:05;;;;;;;11.70;2.03;;;4.00;65.70;;;;;;5055485;28;20017;-78
2022/02/06 06:39:41;;;;;;;7.90;1.45;;;4.00;66.00;;;;;;5055463;28;20025;-77
2022/02/06 06:42:07;;;;;;;6.38;1.95;;;4.00;66.30;;;;;;5055438;28;20079;-78
2022/02/06 06:44:33;;;;;;;8.40;1.30;;;4.10;66.40;;;;;;5055417;28;20036;-80
2022/02/06 06:46:59;;;;;;;11.50;1.80;;;4.10;66.20;;;;;;5055312;28;20017;-79
2022/02/06 06:49:24;;;;;;;6.38;1.67;;;4.10;66.20;;;;;;5055002;28;20040;-77
2022/02/06 06:51:50;;;;;;;7.60;1.80;;;4.10;66.30;;;;;;5055189;28;20025;-78
2022/02/06 06:54:21;;;;;;;7.25;2.17;;;4.10;66.40;;;;;;5055138;28;20361;-77
2022/02/06 06:56:54;;;;;;;9.30;1.90;;;4.10;66.60;;;;;;5055038;28;20029;-77
2022/02/06 06:59:44;;;;;;;8.60;1.67;;;4.10;66.90;;;;;;5056382;28;20078;-87
2022/02/06 07:04:52;;;;;;;8.48;1.42;;;4.50;66.30;;;;;;5056378;28;20029;-78
2022/02/06 07:07:18;;;;;;;7.45;1.35;;;4.60;66.40;;;;;;5054402;28;20052;-86
2022/02/06 07:09:43;;;;;;;8.60;1.52;;;4.70;65.90;;;;;;5055573;28;20122;-83
2022/02/06 07:12:12;;;;;;;13.35;1.48;;;4.90;66.40;;;;;;5064330;28;20025;-84
2022/02/06 07:14:42;;;;;;;5.97;1.50;;;4.90;66.40;;;;;;5056397;28;20029;-87
2022/02/06 07:17:07;;;;;;;9.63;1.95;;;4.80;65.90;;;;;;5055663;28;20028;-85
2022/02/06 07:19:33;;;;;;;11.32;1.48;;;4.80;65.60;;;;;;5055570;28;20033;-83
2022/02/06 07:21:59;;;;;;;5.65;1.50;;;4.70;65.90;;;;;;5055347;28;20447;-85
2022/02/06 07:24:27;;;;;;;10.70;1.42;;;4.70;66.40;;;;;;5053454;28;20017;-82
2022/02/06 07:26:57;;;;;;;4.90;1.38;;;4.90;65.80;;;;;;5055195;28;20499;-82
2022/02/06 07:29:23;;;;;;;7.90;1.88;;;4.90;65.00;;;;;;5054330;28;20123;-75
2022/02/06 07:31:51;;;;;;;6.30;1.08;;;5.20;64.80;;;;;;5054539;28;20536;-77
2022/02/06 07:34:16;;;;;;;8.20;1.50;;;4.90;64.30;;;;;;5053197;28;20036;-76
2022/02/06 07:36:42;;;;;;;5.85;1.15;;;4.60;65.20;;;;;;5053353;28;20021;-76
2022/02/06 07:39:08;;;;;;;10.50;1.25;;;4.60;65.90;;;;;;5053504;28;20565;-77
2022/02/06 07:41:33;;;;;;;8.15;1.60;;;4.40;66.60;;;;;;5052930;28;20381;-75
2022/02/06 07:43:59;;;;;;;8.05;1.70;;;4.40;66.60;;;;;;5053134;28;20032;-77
2022/02/06 07:46:30;;;;;;;11.27;1.30;;;4.50;66.40;;;;;;5052936;28;20021;-78
2022/02/06 07:49:00;;;;;;;6.03;1.20;;;4.40;66.60;;;;;;5052926;28;20021;-77
2022/02/06 07:51:26;;;;;;;5.88;1.20;;;4.40;66.70;;;;;;5053018;28;20138;-78
2022/02/06 07:53:52;;;;;;;9.38;1.40;;;4.40;66.90;;;;;;5053134;28;20029;-78
2022/02/06 07:56:17;;;;;;;6.88;1.00;;;4.30;67.10;;;;;;5052726;28;20481;-77
2022/02/06 07:58:43;;;;;;;9.18;1.52;;;4.40;67.20;;;;;;5052821;28;20098;-77
2022/02/06 08:01:08;;;;;;;6.97;1.20;;;4.40;67.30;;;;;;5052491;28;20461;-77
2022/02/06 08:03:34;;;;;;;10.75;1.45;;;4.30;67.20;;;;;;5052501;28;20029;-77
2022/02/06 08:06:00;;;;;;;6.35;1.25;;;4.50;67.10;;;;;;5052552;28;20041;-76
2022/02/06 08:08:25;;;;;;;5.78;1.55;;;4.50;67.00;;;;;;5052192;28;20060;-77
2022/02/06 08:10:57;;;;;;;8.95;1.88;;;4.50;66.50;;;;;;5052546;28;20031;-78
2022/02/06 08:13:28;;;;;;;8.20;1.63;;;4.50;66.60;;;;;;5052354;28;20550;-77
2022/02/06 08:15:54;;;;;;;13.13;1.52;;;4.50;66.40;;;;;;5052471;28;20480;-77
2022/02/06 08:18:20;;;;;;;6.15;1.25;;;4.60;66.30;;;;;;5052215;28;20028;-78
2022/02/06 08:20:45;;;;;;;8.27;1.80;;;4.60;65.80;;;;;;5052343;28;20099;-77
2022/02/06 08:23:11;;;;;;;7.88;1.75;;;4.70;65.50;;;;;;5052123;28;20017;-78
2022/02/06 08:25:37;;;;;;;7.07;1.40;;;4.70;65.40;;;;;;5052122;28;20021;-78
2022/02/06 08:28:03;;;;;;;9.32;1.15;;;4.80;65.10;;;;;;5051972;28;20578;-75
2022/02/06 08:30:30;;;;;;;9.60;1.85;;;4.80;64.50;;;;;;5051910;28;20039;-77
2022/02/06 08:32:56;;;;;;;8.02;1.20;;;4.90;64.20;;;;;;5052186;28;20021;-75
2022/02/06 08:35:23;;;;;;;8.80;1.73;;;4.90;64.00;;;;;;5051888;28;20443;-78
2022/02/06 08:37:52;;;;;;;5.70;1.15;;;4.90;64.10;;;;;;5052482;28;20462;-78
2022/02/06 08:40:18;;;;;;;6.15;0.88;;;4.90;64.00;;;;;;5051923;28;20056;-75
2022/02/06 08:42:45;;;;;;;5.85;1.67;;;5.00;64.00;;;;;;5051934;28;20029;-74
2022/02/06 08:45:12;;;;;;;9.40;1.45;;;5.00;63.60;;;;;;5051902;28;20469;-77
2022/02/06 08:47:39;;;;;;;8.10;1.20;;;5.10;63.60;;;;;;5051820;28;20028;-78
2022/02/06 08:50:05;;;;;;;9.30;1.38;;;5.10;63.40;;;;;;5051800;28;20099;-77
2022/02/06 08:52:31;;;;;;;6.93;0.93;;;5.10;63.40;;;;;;5051638;28;20544;-77
2022/02/06 08:54:57;;;;;;;5.13;1.13;;;5.20;63.30;;;;;;5051639;28;20116;-77
2022/02/06 08:57:25;;;;;;;3.35;0.80;;;5.10;63.10;;;;;;5051468;28;20532;-77
2022/02/06 08:59:55;;;;;;;8.32;1.10;;;5.10;63.00;;;;;;5051570;28;20033;-77
2022/02/06 09:02:21;;;;;;;13.88;1.55;;;5.20;63.20;;;;;;5051073;28;20088;-76
2022/02/06 09:04:47;;;;;;;7.03;0.88;;;5.10;63.50;;;;;;5051423;28;20112;-76
2022/02/06 09:07:14;;;;;;;7.35;1.17;;;5.10;63.80;;;;;;5051544;28;20499;-77
2022/02/06 09:09:46;;;;;;;4.85;1.30;;;5.20;63.50;;;;;;5051496;28;20040;-78
2022/02/06 09:12:12;;;;;;;6.75;1.40;;;5.20;63.20;;;;;;5051715;28;20600;-77
2022/02/06 09:14:38;;;;;;;5.82;1.30;;;5.30;63.30;;;;;;5051477;28;20071;-74
2022/02/06 09:17:04;;;;;;;7.95;1.90;;;5.40;63.10;;;;;;5051524;28;20477;-73
2022/02/06 09:19:31;;;;;;;7.35;1.40;;;5.40;62.00;;;;;;5051430;28;20144;-76
2022/02/06 09:21:59;;;;;;;7.68;1.65;;;5.40;62.20;;;;;;5051568;28;20036;-78
2022/02/06 09:24:25;;;;;;;5.95;1.08;;;5.40;62.20;;;;;;5051308;28;20032;-76
2022/02/06 09:26:50;;;;;;;5.15;1.30;;;5.50;62.30;;;;;;5051449;28;20025;-77
2022/02/06 09:29:17;;;;;;;5.63;1.20;;;5.50;62.00;;;;;;5051254;28;20048;-76
2022/02/06 09:31:43;;;;;;;8.65;1.77;;;5.60;62.10;;;;;;5051782;28;20097;-75
2022/02/06 09:36:34;;;;;;;5.28;1.30;;;5.40;62.40;;;;;;5052493;28;20021;-74
2022/02/06 09:39:00;;;;;;;7.53;1.40;;;5.40;63.60;;;;;;5051458;28;20024;-76
2022/02/06 09:41:26;;;;;;;3.40;1.20;;;5.50;62.60;;;;;;5051390;28;20071;-76
2022/02/06 09:43:54;;;;;;;9.13;1.38;;;5.50;62.40;;;;;;5051285;28;20029;-77
2022/02/06 09:46:21;;;;;;;7.10;1.42;;;5.50;62.40;;;;;;5051261;28;20017;-73
2022/02/06 09:48:48;;;;;;;6.55;1.23;;;5.40;62.70;;;;;;5053351;28;20489;-73
2022/02/06 09:51:13;;;;;;;6.22;1.45;;;5.40;62.50;;;;;;5055152;28;20493;-74
2022/02/06 09:53:39;;;;;;;2.78;1.10;;;5.50;62.70;;;;;;5055035;28;20017;-73
2022/02/06 09:56:09;;;;;;;4.07;1.08;;;5.50;62.70;;;;;;5055057;28;20021;-77
2022/02/06 10:01:22;;;;;;;2.83;1.05;;;5.50;62.60;;;;;;5056410;28;20491;-76
2022/02/06 10:03:50;;;;;;;5.25;0.90;;;5.50;62.60;;;;;;5054992;28;20033;-73
2022/02/06 10:06:24;;;;;;;4.57;0.98;;;5.50;62.70;;;;;;5054700;28;20058;-74
2022/02/06 10:08:56;;;;;;;12.85;1.48;;;5.50;62.90;;;;;;5054692;28;20032;-73
2022/02/06 10:11:23;;;;;;;3.45;0.70;;;5.50;62.80;;;;;;5054659;28;20032;-75
2022/02/06 10:13:48;;;;;;;4.65;1.17;;;5.60;62.70;;;;;;5054627;28;20457;-73
2022/02/06 10:16:16;;;;;;;4.68;1.30;;;5.60;62.70;;;;;;5054520;28;20029;-75
2022/02/06 10:18:44;;;;;;;5.78;1.20;;;5.60;62.60;;;;;;5054618;28;20437;-73
2022/02/06 10:21:15;;;;;;;6.15;1.63;;;5.60;63.20;;;;;;5054409;28;20025;-74
2022/02/06 10:29:38;;;;;;;6.00;1.30;;;5.50;63.40;;;;;;5021609;28;20059;-75
2022/02/06 10:32:04;;;;;;;7.35;1.30;;;5.60;64.40;;;;;;5054408;28;20429;-74
2022/02/06 10:34:34;;;;;;;5.45;0.90;;;5.60;63.60;;;;;;5054214;28;20024;-73
2022/02/06 10:37:16;;;;;;;5.78;1.27;;;5.70;63.70;;;;;;5054323;28;20039;-73
2022/02/06 10:40:05;;;;;;;7.68;1.27;;;5.80;63.20;;;;;;5054066;28;20492;-73
2022/02/06 10:42:38;;;;;;;4.80;1.00;;;5.90;63.20;;;;;;5054062;28;20516;-72
2022/02/06 10:45:22;;;;;;;4.47;0.90;;;6.00;62.50;;;;;;5054061;28;20087;-76
2022/02/06 10:47:52;;;;;;;6.13;1.20;;;5.90;63.00;;;;;;5054077;28;20025;-75
2022/02/06 10:50:25;;;;;;;4.45;0.98;;;6.00;63.40;;;;;;5055128;28;20396;-73
2022/02/06 10:52:51;;;;;;;5.65;0.90;;;6.00;63.40;;;;;;5054039;28;20051;-74
2022/02/06 10:55:19;;;;;;;4.50;1.15;;;5.90;63.40;;;;;;5055245;28;20065;-74
2022/02/06 10:57:59;;;;;;;6.03;1.00;;;6.00;63.60;;;;;;5053860;28;20032;-74
2022/02/06 11:00:34;;;;;;;5.50;0.98;;;6.00;63.30;;;;;;5052962;28;20476;-73
2022/02/06 11:03:20;;;;;;;5.18;1.00;;;5.90;63.90;;;;;;5053751;28;20025;-76
2022/02/06 11:05:53;;;;;;;7.20;1.33;;;5.80;63.90;;;;;;5053657;28;20090;-76
2022/02/06 11:08:24;;;;;;;5.60;1.20;;;5.70;64.90;;;;;;5053728;28;20040;-78
2022/02/06 11:10:56;;;;;;;3.30;1.08;;;5.70;65.10;;;;;;5053676;28;20036;-75
2022/02/06 11:13:24;;;;;;;3.58;1.00;;;5.70;65.20;;;;;;5053697;28;20028;-76
2022/02/06 11:15:50;;;;;;;10.52;1.30;;;5.80;64.90;;;;;;5053585;28;20175;-77
2022/02/06 11:18:22;;;;;;;4.35;1.08;;;5.80;64.90;;;;;;5053323;28;20056;-76
2022/02/06 11:21:08;;;;;;;5.50;1.00;;;5.80;65.00;;;;;;5053425;28;20024;-76
2022/02/06 11:23:37;;;;;;;6.70;1.20;;;5.80;64.80;;;;;;5053435;28;20029;-73
2022/02/06 11:26:08;;;;;;;5.50;1.20;;;5.70;65.00;;;;;;5053168;28;20115;-77
2022/02/06 11:28:34;;;;;;;5.43;1.67;;;5.80;65.20;;;;;;5052874;28;20091;-78
2022/02/06 11:31:00;;;;;;;3.42;1.23;;;5.80;65.20;;;;;;5053237;28;20083;-75
2022/02/06 11:33:29;;;;;;;6.30;0.90;;;5.70;65.50;;;;;;5052760;28;20025;-74
2022/02/06 11:35:59;;;;;;;7.15;1.20;;;5.80;65.40;;;;;;5053046;28;20031;-76
2022/02/06 11:44:20;;;;;;;7.80;1.08;;;5.70;66.00;;;;;;5054136;28;20396;-74
2022/02/06 11:47:13;;;;;;;4.82;1.58;;;5.60;66.00;;;;;;5086465;28;20032;-74
2022/02/06 11:49:43;;;;;;;4.43;1.10;;;5.60;66.10;;;;;;5052700;28;20570;-74
2022/02/06 11:52:10;;;;;;;3.15;1.52;;;5.60;66.10;;;;;;5054176;28;20060;-76
2022/02/06 11:54:46;;;;;;;6.00;1.10;;;5.70;66.40;;;;;;5052049;28;20061;-72
2022/02/06 11:57:19;;;;;;;6.53;1.73;;;5.70;66.00;;;;;;5052896;28;20077;-76
2022/02/06 12:00:08;;;;;;;4.40;1.10;;;5.80;66.10;;;;;;5052591;28;20032;-77
2022/02/06 12:02:42;;;;;;;3.92;1.00;;;5.80;65.80;;;;;;5052596;28;20108;-78
2022/02/06 12:05:15;;;;;;;1.77;0.75;;;5.90;65.00;;;;;;5052659;28;20029;-75
2022/02/06 12:07:53;;;;;;;3.45;1.17;;;5.90;65.00;;;;;;5052407;28;20020;-77
2022/02/06 12:10:23;;;;;;;2.05;0.77;;;5.90;65.50;;;;;;5052313;28;20032;-74
2022/02/06 12:13:34;;;;;;;5.35;0.90;;;5.90;64.80;;;;;;5052606;28;20095;-75
2022/02/06 12:16:03;;;;;;;3.08;0.80;;;6.00;64.40;;;;;;5052447;28;20528;-75
2022/02/06 12:18:37;;;;;;;6.13;1.05;;;6.10;64.20;;;;;;5052232;28;20108;-74
2022/02/06 12:21:23;;;;;;;4.22;0.90;;;6.10;64.30;;;;;;5052350;28;20029;-75
2022/02/06 12:23:58;;;;;;;2.25;0.88;;;6.10;64.10;;;;;;5052293;28;20049;-78
2022/02/06 12:26:29;;;;;;;2.67;0.82;;;6.20;63.90;;;;;;5052256;28;20369;-73
2022/02/06 12:28:59;;;;;;;5.45;1.00;;;6.20;63.40;;;;;;5052104;28;20118;-73
2022/02/06 12:31:30;;;;;;;7.07;1.00;;;6.30;63.00;;;;;;5052082;28;20381;-75
2022/02/06 12:34:10;;;;;;;2.75;0.60;;;6.30;62.70;;;;;;5052294;28;20032;-76
2022/02/06 12:39:26;;;;;;;2.58;0.50;;;6.40;62.40;;;;;;5052485;28;20115;-75
2022/02/06 12:41:52;;;;;;;4.78;1.15;;;6.40;61.80;;;;;;5052008;28;20032;-74
2022/02/06 12:44:19;;;;;;;2.60;0.50;;;6.40;61.80;;;;;;5052055;28;20028;-77
2022/02/06 12:46:47;;;;;;;3.67;0.73;;;6.50;61.40;;;;;;5053291;28;20031;-77
2022/02/06 12:49:20;;;;;;;2.85;0.75;;;6.50;61.00;;;;;;5035395;28;20075;-77
2022/02/06 12:51:45;;;;;;;6.07;0.80;;;6.50;61.30;;;;;;5051889;28;20025;-74
2022/02/06 12:54:14;;;;;;;1.17;0.52;;;6.50;61.30;;;;;;5051876;28;20534;-78
2022/02/06 12:56:41;;;;;;;2.17;0.60;;;6.60;60.90;;;;;;5051900;28;20032;-80
2022/02/06 12:59:10;;;;;;;2.30;0.57;;;6.50;60.90;;;;;;5051884;28;20074;-78
2022/02/06 13:01:42;;;;;;;4.20;0.80;;;6.60;61.00;;;;;;5051863;28;20040;-75
2022/02/06 13:04:10;;;;;;;1.42;0.60;;;6.60;60.80;;;;;;5051864;28;20028;-78
2022/02/06 13:06:41;;;;;;;2.60;0.55;;;6.70;61.00;;;;;;5052127;28;20025;-75
2022/02/06 13:09:15;;;;;;;2.53;1.02;;;6.70;60.90;;;;;;5051721;28;20032;-75
2022/02/06 13:11:56;;;;;;;1.77;0.30;;;6.70;60.50;;;;;;5051761;28;20116;-78
2022/02/06 13:20:35;;;;;;;2.47;0.40;;;6.70;61.20;;;;;;5052112;28;20512;-76
2022/02/06 13:23:28;;;;;;;4.18;0.60;;;6.60;61.60;;;;;;5052535;28;20041;-74
2022/02/06 13:34:14;;;;;;;0.30;0.30;;;6.60;62.30;;;;;;5002310;28;20038;-76
2022/02/06 13:36:52;;;;;;;2.58;0.40;;;6.60;62.20;;;;;;5055367;28;20083;-76
2022/02/06 13:39:33;;;;;;;3.83;0.90;;;6.60;62.60;;;;;;5056537;28;20014;-75
2022/02/06 13:42:15;;;;;;;1.35;0.45;;;6.60;62.60;;;;;;5055409;28;20021;-76
2022/02/06 13:44:41;;;;;;;2.15;0.35;;;6.70;62.60;;;;;;5055326;28;20055;-74
2022/02/06 13:47:08;;;;;;;0.93;0.30;;;6.60;63.10;;;;;;5038617;28;20029;-74
2022/02/06 13:49:49;;;;;;;1.27;0.40;;;6.60;63.60;;;;;;5055000;28;20041;-74
2022/02/06 13:52:17;;;;;;;4.70;0.30;;;6.60;63.80;;;;;;5040540;28;20500;-76
2022/02/06 13:54:47;;;;;;;1.90;0.50;;;6.60;64.00;;;;;;5055301;28;20462;-78
2022/02/06 13:57:18;;;;;;;2.17;0.30;;;6.50;64.70;;;;;;5056567;28;20083;-78
2022/02/06 13:59:43;;;;;;;3.25;0.50;;;6.50;64.80;;;;;;5055225;28;20538;-77
2022/02/06 14:02:10;;;;;;;1.42;0.57;;;6.50;64.90;;;;;;5054997;28;20025;-79
2022/02/06 14:04:41;;;;;;;1.58;0.63;;;6.50;65.60;;;;;;5054745;28;20120;-79
2022/02/06 14:07:10;;;;;;;0.88;0.40;;;6.40;66.10;;;;;;5054781;28;20049;-76
2022/02/06 14:12:16;;;;;;;2.85;1.63;;;6.30;68.10;;;;;;5055919;28;20017;-75
2022/02/06 14:15:01;;;;;;;2.90;0.87;;;6.10;68.60;;;;;;5054519;28;20025;-73
2022/02/06 14:17:29;;;;;;;0.90;0.38;;;6.10;69.70;;;;;;5054383;28;20071;-74
2022/02/06 14:19:58;;;;;;;1.85;0.45;;;6.00;70.40;;;;;;5054358;28;20025;-75
2022/02/06 14:22:35;;;;;;;1.73;0.30;;;5.90;71.80;;;;;;5054313;28;20052;-74
2022/02/06 14:25:12;;;;;;;1.38;0.40;;;5.80;72.00;;;;;;5054460;28;20025;-75
2022/02/06 14:27:40;;;;;;;0.20;0.20;;;5.70;73.60;;;;;;5054257;28;20131;-75
2022/02/06 14:30:09;;;;;;;0.95;0.30;;;5.60;73.70;;;;;;5053991;28;20056;-73
2022/02/06 14:32:36;;;;;;;1.00;0.40;;;5.50;74.80;;;;;;5054231;28;20480;-73
2022/02/06 14:35:15;;;;;;;0.63;0.30;;;5.40;75.70;;;;;;5052941;28;20082;-75
2022/02/06 14:37:53;;;;;;;0.73;0.30;;;5.40;76.30;;;;;;5054454;28;20095;-79
2022/02/06 14:43:16;;;;;;;1.05;0.30;;;5.20;77.60;;;;;;5024241;28;20029;-76
2022/02/06 14:45:52;;;;;;;0.82;0.22;;;5.10;79.10;;;;;;5054154;28;20074;-75
2022/02/06 14:48:19;;;;;;;0.75;0.20;;;5.00;79.40;;;;;;5053980;28;20029;-76
2022/02/06 14:50:46;;;;;;;0.85;0.60;;;4.90;80.10;;;;;;5053907;28;20047;-75
2022/02/06 14:53:12;;;;;;;1.75;0.30;;;4.90;81.70;;;;;;5054264;28;20428;-75
2022/02/06 14:55:38;;;;;;;0.63;0.20;;;4.90;81.10;;;;;;5053929;28;20135;-74
2022/02/06 14:58:04;;;;;;;0.17;0.13;;;4.90;81.60;;;;;;5054024;28;20024;-79
2022/02/06 15:00:29;;;;;;;2.25;0.38;;;4.80;81.20;;;;;;5053831;28;20155;-79
2022/02/06 15:02:55;;;;;;;0.43;0.25;;;4.90;82.60;;;;;;5053777;28;20059;-79
2022/02/06 15:05:20;;;;;;;0.35;0.28;;;4.80;82.30;;;;;;5053711;28;20119;-76
2022/02/06 15:07:46;;;;;;;2.05;0.38;;;4.80;82.90;;;;;;5053610;28;20025;-78
2022/02/06 15:10:12;;;;;;;0.95;0.77;;;4.70;82.80;;;;;;5053590;28;20029;-78
2022/02/06 15:12:38;;;;;;;0.65;0.40;;;4.80;82.50;;;;;;5053432;28;20021;-78
2022/02/06 15:15:04;;;;;;;0.43;0.30;;;4.80;82.90;;;;;;5053601;28;20172;-78
2022/02/06 15:17:32;;;;;;;0.40;0.40;;;4.70;83.30;;;;;;5053455;28;20535;-76
2022/02/06 15:19:58;;;;;;;0.80;0.40;;;4.80;82.40;;;;;;5054753;28;20108;-78
2022/02/06 15:22:24;;;;;;;0.30;0.22;;;4.90;83.00;;;;;;5053323;28;20167;-77
2022/02/06 15:24:49;;;;;;;2.40;0.50;;;4.90;82.80;;;;;;5053438;28;20366;-78
2022/02/06 15:27:15;;;;;;;0.28;0.20;;;4.90;82.80;;;;;;5053311;28;20021;-78
2022/02/06 15:29:41;;;;;;;0.20;0.20;;;4.90;82.80;;;;;;5053178;28;20081;-77
2022/02/06 15:32:10;;;;;;;1.98;0.38;;;4.90;82.80;;;;;;5053425;28;20110;-75
2022/02/06 15:34:35;;;;;;;0.40;0.40;;;5.00;82.50;;;;;;5054148;28;20025;-76